Offerle, Kansas
Current Conditions -  °F | °C
As of 11:52 PM on Wednesday 28 Jan 2015 (Local Time) from KDDC Reporting Station
Clear Clear  
Wind Chill: 43°   Ceiling: Unl
Heat Index: 49°   Visibility: 10mi
Dew Point: 33°   Wind: 15mph
Humidity: 54%   Direction: 330°NNW
Pressure: 30.16"   Gusts: NA
Location:  37.89°N, 99.56°W
Report Text: KDDC 290552Z AUTO 33013KT 10SM CLR 09/01 A3016 RMK AO2 SLP200 T00940006 10172 20094 402280056 51034
Loading
Personal Weather Stations






























Interactive Weather Map New forecast layout! Learn more

10-Day Weather Forecast

Advertisements
Track Severe Weather on mobile